createdAt,value
2022-11-29T00:01:26.739Z,20.65
2022-11-29T00:06:22.451Z,16.48
2022-11-29T00:08:50.065Z,18.67
2022-11-29T00:11:38.538Z,21.45
2022-11-29T00:14:06.472Z,13.10
2022-11-29T00:16:33.819Z,20.30
2022-11-29T00:19:00.928Z,18.77
2022-11-29T00:21:28.085Z,15.25
2022-11-29T00:23:55.656Z,17.45
2022-11-29T00:26:22.735Z,13.77
2022-11-29T00:28:49.855Z,14.82
2022-11-29T00:31:24.385Z,16.77
2022-11-29T00:33:51.848Z,12.40
2022-11-29T00:36:19.706Z,18.42
2022-11-29T00:38:47.059Z,15.45
2022-11-29T00:41:14.169Z,17.50
2022-11-29T00:43:41.567Z,12.18
2022-11-29T00:46:09.345Z,16.10
2022-11-29T00:48:36.987Z,14.43
2022-11-29T00:51:04.990Z,14.75
2022-11-29T00:53:32.261Z,18.85
2022-11-29T00:55:59.385Z,14.75
2022-11-29T00:58:26.532Z,18.17
2022-11-29T01:00:54.504Z,14.70
2022-11-29T01:03:21.670Z,18.83
2022-11-29T01:05:49.293Z,17.17
2022-11-29T01:08:17.194Z,17.02
2022-11-29T01:10:44.319Z,17.75
2022-11-29T01:13:11.880Z,19.13
2022-11-29T01:15:39.202Z,17.48
2022-11-29T01:18:06.312Z,14.15
2022-11-29T01:20:33.635Z,8.25
2022-11-29T01:23:00.782Z,9.90
2022-11-29T01:25:27.959Z,11.95
2022-11-29T01:27:55.149Z,17.17
2022-11-29T01:30:22.292Z,16.58
2022-11-29T01:32:49.469Z,17.95
2022-11-29T01:35:16.574Z,12.77
2022-11-29T01:37:43.650Z,16.70
2022-11-29T01:40:10.960Z,18.13
2022-11-29T01:42:38.095Z,16.50
2022-11-29T01:45:08.150Z,18.58
2022-11-29T01:47:38.653Z,18.98
2022-11-29T01:50:06.144Z,18.60
2022-11-29T01:52:33.646Z,17.10
2022-11-29T01:55:02.514Z,15.75
2022-11-29T01:57:30.262Z,16.58
2022-11-29T02:00:01.276Z,17.17
2022-11-29T02:02:40.705Z,15.82
2022-11-29T02:05:08.128Z,16.50
2022-11-29T02:07:35.334Z,16.73
2022-11-29T02:10:03.230Z,12.57
2022-11-29T02:12:38.084Z,14.57
2022-11-29T02:15:23.897Z,14.50
2022-11-29T02:17:53.984Z,14.93
2022-11-29T02:20:43.354Z,13.98
2022-11-29T02:23:28.767Z,15.23
2022-11-29T02:26:03.971Z,11.10
2022-11-29T02:28:34.060Z,10.52
2022-11-29T02:31:01.181Z,12.63
2022-11-29T02:33:46.502Z,13.45
2022-11-29T02:36:20.114Z,12.20
2022-11-29T02:39:00.322Z,13.77
2022-11-29T02:41:36.683Z,11.63
2022-11-29T02:44:12.646Z,12.38
2022-11-29T02:46:49.736Z,10.13
2022-11-29T02:49:19.879Z,9.85
2022-11-29T02:51:56.298Z,14.85
2022-11-29T02:54:27.215Z,14.07
2022-11-29T02:56:56.971Z,14.18
2022-11-29T02:59:42.913Z,15.25
2022-11-29T03:02:29.069Z,12.93
2022-11-29T03:05:04.360Z,13.57
2022-11-29T03:07:31.553Z,12.90
2022-11-29T03:10:06.167Z,14.82
2022-11-29T03:12:41.023Z,11.43
2022-11-29T03:15:17.033Z,10.93
2022-11-29T03:17:49.871Z,12.18
2022-11-29T03:20:28.798Z,13.55
2022-11-29T03:23:16.884Z,14.48
2022-11-29T03:25:50.105Z,10.95
2022-11-29T03:28:23.327Z,9.95
2022-11-29T03:30:57.462Z,16.00
2022-11-29T03:33:30.427Z,11.85
2022-11-29T03:36:17.064Z,14.45
2022-11-29T03:38:45.366Z,14.13
2022-11-29T03:41:25.944Z,14.70
2022-11-29T03:44:00.668Z,13.52
2022-11-29T03:46:27.739Z,14.52
2022-11-29T03:49:03.250Z,15.10
2022-11-29T03:51:50.599Z,14.98
2022-11-29T03:54:22.092Z,16.13
2022-11-29T03:56:49.338Z,15.95
2022-11-29T03:59:25.757Z,14.25
2022-11-29T04:02:20.805Z,16.40
2022-11-29T04:04:47.974Z,15.30
2022-11-29T04:07:21.256Z,8.38
2022-11-29T04:10:00.516Z,10.75
2022-11-29T04:12:30.755Z,12.82
2022-11-29T04:15:26.340Z,14.65
2022-11-29T04:18:11.988Z,14.68
2022-11-29T04:20:51.324Z,14.63
2022-11-29T04:23:37.087Z,15.40
2022-11-29T04:26:18.845Z,17.75
2022-11-29T04:28:45.906Z,16.08
2022-11-29T04:31:22.333Z,14.63
2022-11-29T04:33:52.292Z,16.42
2022-11-29T04:36:42.205Z,14.77
2022-11-29T04:39:31.385Z,13.55
2022-11-29T04:42:04.546Z,13.65
2022-11-29T04:44:37.643Z,10.98
2022-11-29T04:47:15.136Z,11.15
2022-11-29T04:49:42.233Z,11.55
2022-11-29T04:52:27.568Z,14.38
2022-11-29T04:55:16.878Z,10.40
2022-11-29T04:58:14.278Z,12.43
2022-11-29T05:03:15.077Z,14.07
2022-11-29T05:05:45.290Z,12.90
2022-11-29T05:08:15.411Z,13.45
2022-11-29T05:10:42.487Z,11.23
2022-11-29T05:13:28.495Z,11.70
2022-11-29T05:16:16.819Z,13.45
2022-11-29T05:19:03.020Z,13.52
2022-11-29T05:21:53.516Z,11.70
2022-11-29T05:24:23.640Z,12.90
2022-11-29T05:26:54.773Z,12.48
2022-11-29T05:29:31.881Z,14.15
2022-11-29T05:31:58.947Z,10.68
2022-11-29T05:34:40.965Z,14.65
2022-11-29T05:37:25.736Z,12.55
2022-11-29T05:39:58.711Z,11.90
2022-11-29T05:42:25.803Z,15.57
2022-11-29T05:45:00.271Z,15.10
2022-11-29T05:47:37.930Z,14.57
2022-11-29T05:50:07.994Z,16.02
2022-11-29T05:52:53.498Z,15.57
2022-11-29T05:55:41.199Z,15.07
2022-11-29T05:58:11.090Z,15.40
2022-11-29T06:00:44.326Z,14.95
2022-11-29T06:03:14.492Z,15.35
2022-11-29T06:05:53.508Z,14.88
2022-11-29T06:08:23.363Z,17.15
2022-11-29T06:11:13.869Z,14.45
2022-11-29T06:13:59.884Z,14.98
2022-11-29T06:16:45.904Z,15.40
2022-11-29T06:19:31.363Z,14.90
2022-11-29T06:22:07.407Z,12.82
2022-11-29T06:24:35.979Z,14.05
2022-11-29T06:27:18.628Z,12.98
2022-11-29T06:29:52.598Z,14.55
2022-11-29T06:32:40.322Z,14.95
2022-11-29T06:35:10.446Z,13.98
2022-11-29T06:37:42.807Z,14.43
2022-11-29T06:40:15.875Z,13.95
2022-11-29T06:42:43.259Z,13.75
2022-11-29T06:45:14.143Z,13.38
2022-11-29T06:47:50.284Z,13.63
2022-11-29T06:50:20.463Z,12.15
2022-11-29T06:52:54.786Z,16.13
2022-11-29T06:55:45.303Z,13.73
2022-11-29T06:58:36.270Z,13.43
2022-11-29T07:01:24.133Z,14.13
2022-11-29T07:04:03.477Z,14.07
2022-11-29T07:06:30.668Z,13.65
2022-11-29T07:09:03.212Z,15.48
2022-11-29T07:11:30.518Z,18.25
2022-11-29T07:13:57.713Z,12.63
2022-11-29T07:16:28.497Z,15.45
2022-11-29T07:19:04.779Z,13.82
2022-11-29T07:21:34.928Z,15.65
2022-11-29T07:24:17.185Z,12.25
2022-11-29T07:26:48.070Z,12.02
2022-11-29T07:29:15.168Z,12.07
2022-11-29T07:31:51.779Z,11.77
2022-11-29T07:34:19.145Z,10.07
2022-11-29T07:36:54.023Z,10.88
2022-11-29T07:39:27.164Z,10.23
2022-11-29T07:42:06.787Z,10.80
2022-11-29T07:44:45.375Z,11.05
2022-11-29T07:47:13.190Z,12.35
2022-11-29T07:49:40.417Z,11.98
2022-11-29T07:52:07.782Z,11.20
2022-11-29T07:54:35.066Z,11.60
2022-11-29T07:57:02.409Z,10.85
2022-11-29T07:59:29.582Z,10.65
2022-11-29T08:01:57.027Z,9.50
2022-11-29T08:04:25.973Z,12.13
2022-11-29T08:09:20.968Z,11.82
2022-11-29T08:11:48.891Z,10.68
2022-11-29T08:14:16.202Z,9.57
2022-11-29T08:16:43.388Z,10.90
2022-11-29T08:19:10.539Z,9.75
2022-11-29T08:21:37.768Z,10.07
2022-11-29T08:24:05.077Z,10.15
2022-11-29T08:26:32.219Z,10.90
2022-11-29T08:28:59.711Z,12.50
2022-11-29T08:31:27.129Z,10.95
2022-11-29T08:33:54.448Z,10.15
2022-11-29T08:36:21.757Z,10.00
2022-11-29T08:38:49.216Z,10.20
2022-11-29T08:41:17.328Z,9.43
2022-11-29T08:43:44.888Z,9.68
2022-11-29T08:46:18.084Z,10.88
2022-11-29T08:48:45.890Z,10.68
2022-11-29T08:51:13.010Z,9.23
2022-11-29T08:53:43.331Z,8.90
2022-11-29T08:57:04.374Z,8.65
2022-11-29T08:59:01.834Z,8.90
2022-11-29T09:01:29.570Z,8.43
2022-11-29T09:04:00.404Z,9.13
2022-11-29T09:06:28.559Z,10.65
2022-11-29T09:08:56.622Z,11.70
2022-11-29T09:11:24.714Z,9.40
2022-11-29T09:13:53.304Z,9.82
2022-11-29T09:16:21.770Z,8.52
2022-11-29T09:18:55.952Z,8.27
2022-11-29T09:21:24.707Z,9.10
2022-11-29T09:23:59.506Z,8.50
2022-11-29T09:26:31.996Z,9.13
2022-11-29T09:29:01.221Z,9.40
2022-11-29T09:31:29.106Z,9.63
2022-11-29T09:33:56.603Z,9.07
2022-11-29T09:36:28.141Z,9.15
2022-11-29T09:38:55.916Z,9.40
2022-11-29T09:41:29.054Z,8.60
2022-11-29T09:46:47.739Z,8.77
2022-11-29T09:49:40.075Z,9.30
2022-11-29T09:58:21.529Z,9.43
2022-11-29T10:01:20.774Z,9.70
2022-11-29T10:03:51.931Z,9.27
2022-11-29T10:06:22.024Z,9.75
2022-11-29T10:08:54.227Z,8.05
2022-11-29T10:11:24.415Z,8.95
2022-11-29T10:13:54.297Z,8.70
2022-11-29T10:16:25.534Z,8.57
2022-11-29T10:18:56.721Z,8.73
2022-11-29T10:31:36.789Z,9.77
2022-11-29T10:34:12.516Z,9.50
2022-11-29T10:36:45.155Z,8.75
2022-11-29T10:39:30.970Z,9.73
2022-11-29T10:42:00.430Z,8.82
2022-11-29T10:44:28.052Z,9.73
2022-11-29T10:49:40.337Z,9.20
2022-11-29T10:52:16.340Z,9.75
2022-11-29T10:54:44.888Z,10.35
2022-11-29T10:57:17.949Z,10.48
2022-11-29T11:00:00.549Z,9.07
2022-11-29T11:02:27.983Z,9.43
2022-11-29T11:04:55.207Z,11.00
2022-11-29T11:07:31.694Z,9.23
2022-11-29T11:09:59.060Z,9.07
2022-11-29T11:12:28.054Z,9.63
2022-11-29T11:15:16.359Z,10.70
2022-11-29T11:18:00.154Z,10.38
2022-11-29T11:20:31.536Z,10.65
2022-11-29T11:23:14.254Z,10.07
2022-11-29T11:25:41.525Z,9.80
2022-11-29T11:28:20.463Z,9.80
2022-11-29T11:30:52.246Z,10.07
2022-11-29T11:33:21.014Z,10.90
2022-11-29T11:36:06.919Z,10.25
2022-11-29T11:38:38.018Z,10.98
2022-11-29T11:41:12.572Z,10.07
2022-11-29T11:43:40.920Z,10.15
2022-11-29T11:46:08.620Z,9.98
2022-11-29T11:48:37.265Z,10.98
2022-11-29T11:51:04.726Z,10.95
2022-11-29T11:53:50.935Z,11.20
2022-11-29T11:56:18.380Z,10.65
2022-11-29T11:58:57.789Z,11.30
2022-11-29T12:01:47.195Z,11.35
2022-11-29T12:04:30.934Z,11.35
2022-11-29T12:07:05.201Z,11.43
2022-11-29T12:09:45.118Z,11.05
2022-11-29T12:12:21.247Z,10.43
2022-11-29T12:14:58.262Z,10.80
2022-11-29T12:17:40.818Z,12.05
2022-11-29T12:20:28.394Z,11.38
2022-11-29T12:23:13.947Z,12.15
2022-11-29T12:25:45.249Z,12.05
2022-11-29T12:28:20.985Z,14.18
2022-11-29T12:30:49.851Z,14.93
2022-11-29T12:33:27.411Z,14.13
2022-11-29T12:36:07.575Z,14.55
2022-11-29T12:38:59.225Z,11.85
2022-11-29T12:41:26.464Z,12.90
2022-11-29T12:44:05.073Z,10.82
2022-11-29T12:46:37.276Z,11.70
2022-11-29T12:49:07.591Z,11.30
2022-11-29T12:51:41.872Z,13.20
2022-11-29T12:54:24.848Z,13.07
2022-11-29T12:57:10.613Z,12.02
2022-11-29T13:00:12.804Z,12.10
2022-11-29T13:03:04.097Z,13.52
2022-11-29T13:05:48.761Z,10.90
2022-11-29T13:08:37.618Z,10.77
2022-11-29T13:11:35.275Z,11.55
2022-11-29T13:14:40.955Z,11.10
2022-11-29T13:17:03.317Z,11.95
2022-11-29T13:24:29.854Z,11.25
2022-11-29T13:26:57.306Z,12.85
2022-11-29T13:29:24.888Z,11.10
2022-11-29T13:31:52.393Z,11.02
2022-11-29T13:34:23.342Z,13.40
2022-11-29T13:37:15.249Z,10.65
2022-11-29T13:39:50.844Z,11.77
2022-11-29T13:42:32.010Z,12.27
2022-11-29T13:45:02.598Z,12.80
2022-11-29T13:47:30.145Z,11.10
2022-11-29T13:49:58.846Z,11.30
2022-11-29T13:55:05.644Z,10.10
2022-11-29T13:58:16.416Z,10.52
2022-11-29T14:00:44.706Z,9.40
2022-11-29T14:03:17.913Z,10.75
2022-11-29T14:05:46.273Z,11.00
2022-11-29T14:08:37.925Z,9.98
2022-11-29T14:11:15.136Z,10.82
2022-11-29T14:13:42.235Z,9.90
2022-11-29T14:16:19.067Z,9.50
2022-11-29T14:18:50.473Z,10.05
2022-11-29T14:21:17.747Z,10.05
2022-11-29T14:23:46.681Z,9.75
2022-11-29T14:26:26.632Z,9.23
2022-11-29T14:28:58.493Z,9.63
2022-11-29T14:31:45.530Z,10.00
2022-11-29T14:34:14.579Z,9.75
2022-11-29T14:36:54.152Z,8.95
2022-11-29T14:39:28.761Z,10.45
2022-11-29T14:42:02.219Z,12.07
2022-11-29T14:44:31.258Z,11.82
2022-11-29T14:47:01.700Z,11.15
2022-11-29T14:49:35.181Z,10.13
2022-11-29T14:52:07.171Z,11.85
2022-11-29T14:54:35.485Z,11.07
2022-11-29T14:57:21.389Z,10.65
2022-11-29T14:59:52.430Z,10.15
2022-11-29T15:02:22.833Z,10.38
2022-11-29T15:04:51.938Z,9.73
2022-11-29T15:07:40.420Z,9.95
2022-11-29T15:10:24.695Z,11.88
2022-11-29T15:13:08.565Z,11.32
2022-11-29T15:16:08.699Z,10.52
2022-11-29T15:19:03.575Z,11.73
2022-11-29T15:21:40.702Z,10.93
2022-11-29T15:24:15.600Z,25.90
2022-11-29T15:29:27.360Z,13.95
2022-11-29T15:35:21.260Z,12.55
2022-11-29T15:37:50.067Z,12.23
2022-11-29T15:42:50.597Z,12.95
2022-11-29T15:45:34.417Z,15.45
2022-11-29T15:48:30.941Z,12.30
2022-11-29T15:50:58.071Z,12.60
2022-11-29T15:53:28.503Z,13.07
2022-11-29T15:55:57.395Z,13.82
2022-11-29T15:58:26.932Z,14.63
2022-11-29T16:00:54.933Z,13.95
2022-11-29T16:03:29.013Z,16.17
2022-11-29T16:06:15.023Z,13.35
2022-11-29T16:08:42.778Z,12.38
2022-11-29T16:11:14.629Z,12.18
2022-11-29T16:13:43.058Z,12.35
2022-11-29T16:16:13.455Z,14.13
2022-11-29T16:18:41.696Z,14.48
2022-11-29T16:21:21.753Z,23.77
2022-11-29T16:23:49.211Z,16.40
2022-11-29T16:26:36.340Z,15.55
2022-11-29T16:29:04.733Z,15.48
2022-11-29T16:31:35.003Z,13.95
2022-11-29T16:34:09.710Z,14.10
2022-11-29T16:36:36.874Z,13.85
2022-11-29T16:39:08.371Z,15.65
2022-11-29T16:41:36.959Z,14.57
2022-11-29T16:44:05.097Z,14.38
2022-11-29T16:46:36.478Z,14.80
2022-11-29T16:49:22.285Z,12.23
2022-11-29T16:51:49.548Z,13.35
2022-11-29T16:54:24.020Z,13.63
2022-11-29T16:56:52.047Z,13.70
2022-11-29T16:59:26.505Z,13.82
2022-11-29T17:01:55.529Z,13.32
2022-11-29T17:04:23.497Z,15.63
2022-11-29T17:06:52.321Z,13.50
2022-11-29T17:09:30.486Z,16.60
2022-11-29T17:12:01.160Z,15.90
2022-11-29T17:14:33.307Z,13.13
2022-11-29T17:17:03.214Z,16.10
2022-11-29T17:19:30.788Z,14.32
2022-11-29T17:21:58.245Z,12.98
2022-11-29T17:24:25.594Z,12.90
2022-11-29T17:26:52.902Z,13.15
2022-11-29T17:29:20.140Z,11.60
2022-11-29T17:31:47.797Z,12.50
2022-11-29T17:34:14.952Z,12.57
2022-11-29T17:36:42.178Z,10.95
2022-11-29T17:39:10.855Z,13.55
2022-11-29T17:41:41.373Z,15.88
2022-11-29T18:17:08.109Z,10.32
2022-11-29T18:29:34.270Z,11.15
2022-11-29T18:32:05.587Z,10.77
2022-11-29T18:34:32.660Z,10.20
2022-11-29T18:36:59.773Z,12.93
2022-11-29T18:39:27.008Z,11.95
2022-11-29T18:41:54.108Z,11.30
2022-11-29T18:44:21.954Z,9.73
2022-11-29T18:46:49.185Z,10.10
2022-11-29T18:49:17.314Z,10.32
2022-11-29T18:51:45.567Z,9.05
2022-11-29T18:54:13.825Z,10.68
2022-11-29T18:56:41.417Z,10.30
2022-11-29T18:59:10.806Z,10.73
2022-11-29T19:01:41.273Z,10.88
2022-11-29T19:04:09.772Z,9.63
2022-11-29T19:06:40.038Z,8.88
2022-11-29T19:09:09.735Z,8.88
2022-11-29T19:11:36.927Z,7.82
2022-11-29T19:14:05.539Z,8.15
2022-11-29T19:16:34.846Z,9.77
2022-11-29T19:19:02.298Z,12.13
2022-11-29T19:21:31.826Z,8.30
2022-11-29T19:24:00.534Z,7.75
2022-11-29T19:26:31.976Z,8.18
2022-11-29T19:29:00.406Z,7.85
2022-11-29T19:31:28.075Z,8.20
2022-11-29T19:33:55.641Z,7.80
2022-11-29T19:36:24.358Z,8.75
2022-11-29T19:38:54.101Z,7.95
2022-11-29T19:41:21.553Z,8.32
2022-11-29T19:43:49.106Z,7.22
2022-11-29T19:46:17.490Z,8.15
2022-11-29T19:48:44.819Z,7.30
2022-11-29T19:51:12.676Z,6.28
2022-11-29T19:53:40.424Z,7.18
2022-11-29T19:56:08.724Z,7.10
2022-11-29T19:58:35.881Z,7.15
2022-11-29T20:01:06.004Z,6.65
2022-11-29T20:03:33.276Z,6.90
2022-11-29T20:06:00.639Z,6.50
2022-11-29T20:08:27.947Z,6.30
2022-11-29T20:10:55.236Z,6.95
2022-11-29T20:13:22.865Z,6.10
2022-11-29T20:15:50.010Z,7.05
2022-11-29T20:18:17.188Z,8.00
2022-11-29T20:20:44.439Z,7.78
2022-11-29T20:23:11.573Z,8.02
2022-11-29T20:25:38.655Z,7.40
2022-11-29T20:28:06.809Z,9.05
2022-11-29T20:30:35.220Z,9.45
2022-11-29T20:33:02.510Z,7.63
2022-11-29T20:35:29.872Z,7.40
2022-11-29T20:37:57.211Z,7.75
2022-11-29T20:40:28.645Z,7.65
2022-11-29T20:43:14.368Z,6.78
2022-11-29T20:45:41.628Z,6.53
2022-11-29T20:48:17.379Z,6.07
2022-11-29T20:50:47.854Z,5.78
2022-11-29T20:53:23.650Z,7.65
2022-11-29T20:55:50.788Z,11.88
2022-11-29T20:58:19.440Z,8.68
2022-11-29T21:00:46.852Z,6.57
2022-11-29T21:03:17.456Z,6.38
2022-11-29T21:05:44.915Z,5.85
2022-11-29T21:08:12.231Z,6.88
2022-11-29T21:10:39.431Z,6.95
2022-11-29T21:13:06.753Z,7.18
2022-11-29T21:15:34.259Z,7.18
2022-11-29T21:18:01.484Z,6.95
2022-11-29T21:20:28.713Z,6.20
2022-11-29T21:23:02.087Z,7.28
2022-11-29T21:25:43.958Z,7.05
2022-11-29T21:28:15.170Z,6.35
2022-11-29T21:30:43.518Z,6.40
2022-11-29T21:33:11.567Z,6.38
2022-11-29T21:35:39.903Z,5.18
2022-11-29T21:38:07.571Z,5.97
2022-11-29T21:40:34.654Z,6.43
2022-11-29T21:43:01.818Z,5.05
2022-11-29T21:45:29.016Z,4.88
2022-11-29T21:47:56.121Z,5.70
2022-11-29T21:50:23.227Z,6.05
2022-11-29T21:52:52.262Z,5.70
2022-11-29T21:55:19.368Z,5.18
2022-11-29T21:57:46.512Z,6.80
2022-11-29T22:00:14.435Z,7.10
2022-11-29T22:02:41.669Z,6.82
2022-11-29T22:05:09.635Z,6.18
2022-11-29T22:07:36.876Z,6.80
2022-11-29T22:10:11.580Z,6.25
2022-11-29T22:12:49.313Z,6.28
2022-11-29T22:15:24.166Z,6.25
2022-11-29T22:17:52.245Z,6.32
2022-11-29T22:20:19.575Z,5.85
2022-11-29T22:22:48.495Z,6.50
2022-11-29T22:25:16.209Z,6.57
2022-11-29T22:27:43.368Z,5.95
2022-11-29T22:30:10.677Z,6.13
2022-11-29T22:32:37.784Z,7.55
2022-11-29T22:35:05.021Z,6.50
2022-11-29T22:37:32.132Z,6.57
2022-11-29T22:39:59.495Z,6.40
2022-11-29T22:42:26.618Z,5.22
2022-11-29T22:44:53.772Z,5.90
2022-11-29T22:47:20.898Z,4.75
2022-11-29T22:49:49.529Z,6.03
2022-11-29T22:52:16.592Z,6.35
2022-11-29T22:54:43.940Z,5.43
2022-11-29T22:57:11.128Z,5.93
2022-11-29T22:59:38.205Z,5.80
2022-11-29T23:02:05.336Z,5.72
2022-11-29T23:04:32.431Z,7.10
2022-11-29T23:06:59.577Z,5.57
2022-11-29T23:09:26.640Z,6.05
2022-11-29T23:11:56.218Z,6.68
2022-11-29T23:14:23.835Z,5.88
2022-11-29T23:16:51.349Z,5.60
2022-11-29T23:19:18.765Z,5.93
2022-11-29T23:21:46.451Z,4.47
2022-11-29T23:24:14.496Z,6.32
2022-11-29T23:26:43.673Z,4.07
2022-11-29T23:29:12.342Z,4.53
2022-11-29T23:31:39.901Z,6.90
2022-11-29T23:34:07.484Z,5.88
2022-11-29T23:36:34.623Z,5.50
2022-11-29T23:39:01.727Z,5.97
2022-11-29T23:41:28.899Z,6.35
2022-11-29T23:43:56.012Z,6.40
2022-11-29T23:46:24.132Z,6.55
2022-11-29T23:48:51.693Z,6.20
2022-11-29T23:51:19.715Z,4.45
2022-11-29T23:53:47.262Z,5.97
2022-11-29T23:56:16.576Z,5.72
2022-11-29T23:58:44.145Z,4.78
